Danforth, Illinois
Current Conditions -  °F | °C
As of 9:35 AM on Saturday 25 Oct 2014 (Local Time) from KIKK Reporting Station
Haze Haze  
Wind Chill: 58°   Ceiling: 600
Heat Index: 58°   Visibility: 5mi
Dew Point: 55°   Wind: 10mph
Humidity: 91%   Direction: 270°W
Pressure: 29.97"   Gusts: NA
Location:  40.82°N, 87.98°W
Report Text: KIKK 251435Z AUTO 27009KT 5SM BR OVC006 14/13 A2997 RMK AO2 T01440129
Loading
Personal Weather Stations






























Interactive Weather Map
Tropical Storm Tracking
New forecast layout! Learn more

10-Day Weather Forecast

Advertisements
Track Severe Weather on mobile